Time;durP1;ratioP1;P1;durP2;ratioP2;P2;SDS_P1;SDS_P2;PMS_P1;PMS_P2;Temp;Humidity;BMP_temperature;BMP_pressure;BME280_temperature;BME280_humidity;BME280_pressure;Samples;Min_cycle;Max_cycle;Signal;HPM_P1;HPM_P2
2021/01/29 00:02:25;;;;;;;0.30;0.20;;;;;;;9.83;100.00;98921.84;4990812;28;20465;-51
2021/01/29 00:04:52;;;;;;;0.30;0.20;;;;;;;9.77;100.00;98902.66;4979291;28;20974;-50
2021/01/29 00:07:18;;;;;;;0.30;0.20;;;;;;;9.74;100.00;98900.16;4981405;28;20485;-50
2021/01/29 00:09:44;;;;;;;0.30;0.20;;;;;;;9.75;100.00;98882.44;4986419;28;20451;-51
2021/01/29 00:12:11;;;;;;;0.30;0.20;;;;;;;9.73;100.00;98876.31;4984370;28;20954;-51
2021/01/29 00:14:37;;;;;;;0.30;0.20;;;;;;;9.66;100.00;98875.75;4981656;28;20473;-50
2021/01/29 00:17:03;;;;;;;0.30;0.20;;;;;;;9.66;100.00;98866.94;4985517;28;20678;-50
2021/01/29 00:19:30;;;;;;;0.30;0.20;;;;;;;9.48;100.00;98858.94;4990075;28;20450;-51
2021/01/29 00:21:56;;;;;;;0.30;0.20;;;;;;;9.45;100.00;98858.19;4988538;28;20457;-50
2021/01/29 00:24:22;;;;;;;0.30;0.20;;;;;;;9.32;100.00;98843.78;4978785;28;20474;-50
2021/01/29 00:26:48;;;;;;;0.30;0.20;;;;;;;9.31;100.00;98836.75;4987979;28;20970;-51
2021/01/29 00:29:14;;;;;;;0.30;0.20;;;;;;;9.20;100.00;98826.69;4983135;28;20935;-50
2021/01/29 00:31:40;;;;;;;0.30;0.20;;;;;;;9.14;100.00;98835.75;4985140;28;20458;-50
2021/01/29 00:34:07;;;;;;;0.30;0.20;;;;;;;9.10;100.00;98828.88;4989552;28;20631;-50
2021/01/29 00:36:33;;;;;;;0.30;0.20;;;;;;;8.99;100.00;98825.00;4988417;28;20531;-50
2021/01/29 00:38:59;;;;;;;0.30;0.20;;;;;;;9.08;100.00;98817.50;4983160;28;20507;-50
2021/01/29 00:41:26;;;;;;;0.30;0.20;;;;;;;9.02;100.00;98811.63;4985428;28;20450;-50
2021/01/29 00:43:52;;;;;;;0.30;0.20;;;;;;;9.04;100.00;98818.56;4989815;28;20540;-50
2021/01/29 00:46:19;;;;;;;0.30;0.20;;;;;;;8.98;100.00;98807.38;4987859;28;20489;-50
2021/01/29 00:48:46;;;;;;;0.30;0.20;;;;;;;9.05;100.00;98800.91;4983373;28;20461;-50
2021/01/29 00:51:13;;;;;;;0.30;0.20;;;;;;;8.97;100.00;98803.03;4984996;28;20517;-50
2021/01/29 00:53:39;;;;;;;0.30;0.20;;;;;;;8.92;100.00;98786.50;4989816;28;20504;-50
2021/01/29 00:56:06;;;;;;;0.30;0.20;;;;;;;8.94;100.00;98789.91;4976645;28;20798;-50
2021/01/29 00:58:33;;;;;;;0.30;0.20;;;;;;;8.86;100.00;98791.13;4989474;28;20938;-50
2021/01/29 01:01:00;;;;;;;0.30;0.20;;;;;;;8.84;100.00;98792.97;4987055;28;20950;-51
2021/01/29 01:03:27;;;;;;;0.30;0.20;;;;;;;8.82;100.00;98781.59;4988719;28;20500;-50
2021/01/29 01:05:54;;;;;;;0.30;0.20;;;;;;;8.82;100.00;98776.31;4989382;28;20520;-50
2021/01/29 01:08:20;;;;;;;0.30;0.20;;;;;;;8.81;100.00;98768.44;4983617;28;20516;-50
2021/01/29 01:10:47;;;;;;;0.30;0.20;;;;;;;8.77;100.00;98772.13;4982875;28;20454;-50
2021/01/29 01:13:13;;;;;;;0.30;0.20;;;;;;;8.84;100.00;98763.84;4988722;28;20450;-50
2021/01/29 01:15:39;;;;;;;0.30;0.20;;;;;;;8.84;100.00;98761.19;4989058;28;20573;-50
2021/01/29 01:18:08;;;;;;;0.30;0.20;;;;;;;8.80;100.00;98750.81;4983089;28;20468;-50
2021/01/29 01:20:34;;;;;;;0.30;0.20;;;;;;;8.77;100.00;98751.81;4982285;28;20531;-50
2021/01/29 01:23:00;;;;;;;0.30;0.20;;;;;;;8.69;100.00;98753.09;4988443;28;20451;-50
2021/01/29 01:25:27;;;;;;;0.30;0.20;;;;;;;8.73;100.00;98744.91;4988233;28;20555;-50
2021/01/29 01:27:55;;;;;;;0.30;0.20;;;;;;;8.83;100.00;98738.28;4981190;28;20505;-50
2021/01/29 01:30:42;;;;;;;0.30;0.20;;;;;;;8.76;100.00;98734.19;4988686;28;20465;-50
2021/01/29 01:33:08;;;;;;;0.30;0.20;;;;;;;8.86;100.00;98737.28;4987171;28;20445;-50
2021/01/29 01:35:35;;;;;;;0.30;0.20;;;;;;;8.89;100.00;98732.69;4982305;28;20469;-49
2021/01/29 01:38:03;;;;;;;0.30;0.20;;;;;;;8.92;100.00;98721.09;4984408;28;20453;-50
2021/01/29 01:40:33;;;;;;;0.30;0.20;;;;;;;8.85;100.00;98720.50;4988538;28;20458;-49
2021/01/29 01:42:59;;;;;;;0.30;0.20;;;;;;;8.84;100.00;98713.50;4987274;28;20822;-50
2021/01/29 01:45:28;;;;;;;0.30;0.20;;;;;;;8.79;100.00;98702.28;4981952;28;20507;-49
2021/01/29 01:48:12;;;;;;;0.30;0.20;;;;;;;8.93;100.00;98696.31;4983339;28;20446;-49
2021/01/29 01:50:45;;;;;;;0.30;0.20;;;;;;;8.85;100.00;98683.41;4983174;28;20445;-49
2021/01/29 01:53:24;;;;;;;0.30;0.20;;;;;;;8.91;100.00;98661.09;4982071;28;20446;-49
2021/01/29 01:55:58;;;;;;;0.30;0.20;;;;;;;9.01;100.00;98666.78;4984450;28;20470;-50
2021/01/29 01:58:25;;;;;;;0.30;0.20;;;;;;;8.99;100.00;98664.22;4988373;28;21047;-49
2021/01/29 02:00:51;;;;;;;0.30;0.20;;;;;;;8.97;100.00;98647.53;4985885;28;20454;-49
2021/01/29 02:03:23;;;;;;;0.30;0.20;;;;;;;8.98;100.00;98649.25;4988406;28;20923;-50
2021/01/29 02:05:49;;;;;;;0.30;0.20;;;;;;;8.98;100.00;98638.66;4987576;28;20485;-49
2021/01/29 02:08:17;;;;;;;0.30;0.20;;;;;;;8.94;100.00;98637.09;4975558;28;20539;-50
2021/01/29 02:10:44;;;;;;;0.30;0.20;;;;;;;8.86;100.00;98624.19;4988251;28;20453;-50
2021/01/29 02:13:10;;;;;;;0.30;0.20;;;;;;;9.02;100.00;98615.50;4968660;28;20939;-49
2021/01/29 02:15:41;;;;;;;0.30;0.20;;;;;;;9.07;100.00;98609.06;4981263;28;20466;-50
2021/01/29 02:18:20;;;;;;;0.30;0.20;;;;;;;9.07;100.00;98603.75;4982499;28;20441;-50
2021/01/29 02:21:11;;;;;;;0.30;0.20;;;;;;;9.08;100.00;98597.53;4981313;28;20512;-49
2021/01/29 02:23:59;;;;;;;0.30;0.20;;;;;;;9.05;100.00;98592.38;4982609;28;20450;-49
2021/01/29 02:26:37;;;;;;;0.30;0.20;;;;;;;9.14;100.00;98576.00;4973681;28;20496;-50
2021/01/29 02:29:27;;;;;;;0.30;0.20;;;;;;;9.06;100.00;98570.25;4980788;28;20494;-50
2021/01/29 02:32:11;;;;;;;0.30;0.20;;;;;;;9.10;100.00;98555.88;4981291;28;20505;-49
2021/01/29 02:35:14;;;;;;;0.30;0.20;;;;;;;9.18;100.00;98558.13;4985043;28;20474;-49
2021/01/29 02:37:47;;;;;;;0.30;0.20;;;;;;;9.21;100.00;98555.34;4970509;28;20464;-49
2021/01/29 02:40:18;;;;;;;0.30;0.20;;;;;;;9.14;100.00;98552.13;4981446;28;20851;-49
2021/01/29 02:42:57;;;;;;;0.30;0.20;;;;;;;9.25;100.00;98540.13;4984873;28;20552;-49
2021/01/29 02:45:49;;;;;;;0.30;0.20;;;;;;;9.32;100.00;98541.53;4987137;28;20552;-50
2021/01/29 02:48:26;;;;;;;0.30;0.20;;;;;;;9.27;100.00;98528.50;4987477;28;20934;-50
2021/01/29 02:51:06;;;;;;;0.30;0.20;;;;;;;9.32;100.00;98515.00;4984619;28;20445;-49
2021/01/29 02:53:49;;;;;;;0.30;0.20;;;;;;;9.39;100.00;98511.09;4980566;28;20855;-49
2021/01/29 02:56:45;;;;;;;0.30;0.20;;;;;;;9.43;100.00;98496.75;4980682;28;20928;-50
2021/01/29 02:59:27;;;;;;;0.30;0.20;;;;;;;9.46;100.00;98497.47;4978899;28;20463;-49
2021/01/29 03:02:15;;;;;;;0.30;0.20;;;;;;;9.52;100.00;98484.81;4971504;28;20461;-50
2021/01/29 03:05:03;;;;;;;1.27;0.90;;;;;;;9.49;100.00;98472.56;4980869;28;20485;-49
2021/01/29 03:07:39;;;;;;;0.30;0.20;;;;;;;9.50;100.00;98463.66;4980941;28;20446;-49
2021/01/29 03:10:11;;;;;;;0.30;0.20;;;;;;;9.52;100.00;98463.59;4970288;28;20500;-49
2021/01/29 03:12:46;;;;;;;0.30;0.20;;;;;;;9.53;100.00;98452.88;4980729;28;20453;-50
2021/01/29 03:15:22;;;;;;;0.30;0.20;;;;;;;9.48;100.00;98447.00;4983577;28;20837;-49
2021/01/29 03:17:56;;;;;;;0.30;0.20;;;;;;;9.43;100.00;98451.66;4987206;28;20462;-49
2021/01/29 03:20:47;;;;;;;0.30;0.20;;;;;;;9.44;100.00;98440.13;4986205;28;20481;-49
2021/01/29 03:23:49;;;;;;;0.30;0.20;;;;;;;9.45;100.00;98440.03;4972778;28;20441;-50
2021/01/29 03:26:31;;;;;;;0.30;0.20;;;;;;;9.43;100.00;98427.78;4968675;28;20488;-50
2021/01/29 03:29:03;;;;;;;0.30;0.20;;;;;;;9.46;100.00;98422.34;4980700;28;20457;-49
2021/01/29 03:31:32;;;;;;;0.30;0.20;;;;;;;9.44;100.00;98405.66;4983343;28;20443;-49
2021/01/29 03:34:04;;;;;;;0.30;0.20;;;;;;;9.48;100.00;98401.91;4986545;28;20470;-49
2021/01/29 03:36:37;;;;;;;0.30;0.20;;;;;;;9.56;100.00;98397.03;4984974;28;20446;-49
2021/01/29 03:39:14;;;;;;;0.30;0.20;;;;;;;9.55;100.00;98386.50;4980411;28;20495;-50
2021/01/29 03:41:43;;;;;;;0.30;0.20;;;;;;;9.55;100.00;98382.06;4980214;28;20501;-49
2021/01/29 03:44:24;;;;;;;0.30;0.20;;;;;;;9.49;100.00;98382.41;4985373;28;20485;-49
2021/01/29 03:46:59;;;;;;;0.30;0.20;;;;;;;9.47;100.00;98368.38;4986347;28;20490;-49
2021/01/29 03:49:49;;;;;;;0.30;0.20;;;;;;;9.49;100.00;98363.84;4984305;28;20532;-50
2021/01/29 03:52:40;;;;;;;0.30;0.20;;;;;;;9.46;100.00;98351.59;4968589;28;20511;-49
2021/01/29 03:55:24;;;;;;;0.30;0.20;;;;;;;9.51;100.00;98338.09;4975738;28;20465;-49
2021/01/29 03:58:02;;;;;;;0.30;0.20;;;;;;;9.42;100.00;98326.19;4986468;28;20958;-49
2021/01/29 04:00:46;;;;;;;0.30;0.20;;;;;;;9.43;100.00;98321.72;4981944;28;20832;-49
2021/01/29 04:03:21;;;;;;;0.30;0.20;;;;;;;9.49;100.00;98308.16;4985297;28;20481;-49
2021/01/29 04:05:57;;;;;;;0.30;0.20;;;;;;;9.51;100.00;98295.66;4985818;28;20496;-50
2021/01/29 04:08:42;;;;;;;0.30;0.20;;;;;;;9.44;100.00;98291.63;4985318;28;20450;-50
2021/01/29 04:11:16;;;;;;;0.30;0.20;;;;;;;9.32;100.00;98293.19;4986732;28;20450;-49
2021/01/29 04:13:47;;;;;;;0.30;0.20;;;;;;;9.43;100.00;98282.81;4983949;28;20507;-49
2021/01/29 04:16:36;;;;;;;0.30;0.20;;;;;;;9.41;100.00;98282.03;4974807;28;21279;-51
2021/01/29 04:19:06;;;;;;;0.30;0.20;;;;;;;9.41;100.00;98270.59;4985805;28;20508;-50
2021/01/29 04:21:42;;;;;;;0.30;0.20;;;;;;;9.37;100.00;98269.91;4981685;28;21057;-50
2021/01/29 04:24:32;;;;;;;0.30;0.20;;;;;;;9.32;100.00;98257.84;4979631;28;20468;-49
2021/01/29 04:27:05;;;;;;;0.30;0.20;;;;;;;9.31;100.00;98256.97;4985147;28;20504;-49
2021/01/29 04:29:56;;;;;;;0.30;0.20;;;;;;;9.34;100.00;98254.19;4985311;28;21003;-50
2021/01/29 04:32:26;;;;;;;0.30;0.20;;;;;;;9.39;100.00;98251.25;4986139;28;20521;-50
2021/01/29 04:34:57;;;;;;;0.30;0.20;;;;;;;9.41;100.00;98238.75;4984470;28;20473;-50
2021/01/29 04:37:28;;;;;;;0.30;0.20;;;;;;;9.47;100.00;98233.97;4974819;28;20931;-49
2021/01/29 04:40:01;;;;;;;0.30;0.20;;;;;;;9.54;100.00;98225.66;4979986;28;21011;-50
2021/01/29 04:42:45;;;;;;;0.30;0.20;;;;;;;9.66;100.00;98222.31;4979508;28;20453;-49
2021/01/29 04:45:31;;;;;;;0.30;0.20;;;;;;;9.71;100.00;98222.88;4976809;28;20891;-50
2021/01/29 04:48:06;;;;;;;0.30;0.20;;;;;;;9.70;100.00;98206.09;4984418;28;20445;-50
2021/01/29 04:50:45;;;;;;;0.30;0.20;;;;;;;9.77;100.00;98203.97;4979142;28;20449;-49
2021/01/29 04:53:21;;;;;;;0.30;0.20;;;;;;;9.88;100.00;98190.06;4991029;28;20539;-49
2021/01/29 04:56:19;;;;;;;0.30;0.20;;;;;;;9.95;100.00;98178.97;4973031;28;20863;-49
2021/01/29 04:59:00;;;;;;;0.30;0.20;;;;;;;10.10;100.00;98169.22;4984418;28;20505;-49
2021/01/29 05:01:50;;;;;;;0.30;0.20;;;;;;;10.21;100.00;98155.31;4977929;28;20966;-50
2021/01/29 05:04:26;;;;;;;0.30;0.20;;;;;;;10.21;100.00;98148.22;4982975;28;20544;-50
2021/01/29 05:07:19;;;;;;;0.30;0.20;;;;;;;10.12;100.00;98143.44;4987518;28;20551;-50
2021/01/29 05:10:06;;;;;;;0.30;0.20;;;;;;;10.28;100.00;98138.06;4989774;28;20505;-50
2021/01/29 05:12:54;;;;;;;0.30;0.20;;;;;;;10.24;100.00;98133.91;4986583;28;20453;-50
2021/01/29 05:15:27;;;;;;;0.30;0.20;;;;;;;10.26;100.00;98127.56;4978573;28;20476;-50
2021/01/29 05:18:14;;;;;;;0.30;0.20;;;;;;;10.27;100.00;98121.28;4982879;28;20445;-49
2021/01/29 05:21:27;;;;;;;0.30;0.20;;;;;;;10.27;100.00;98112.47;4982808;28;20450;-50
2021/01/29 05:24:10;;;;;;;0.30;0.20;;;;;;;10.27;100.00;98107.16;4978761;28;20474;-50
2021/01/29 05:27:02;;;;;;;0.30;0.20;;;;;;;10.22;100.00;98096.84;4988304;28;20497;-50
2021/01/29 05:29:31;;;;;;;0.30;0.20;;;;;;;10.21;100.00;98087.16;4988626;28;20454;-50
2021/01/29 05:32:09;;;;;;;0.30;0.20;;;;;;;10.22;100.00;98085.38;4976909;28;20594;-51
2021/01/29 05:34:51;;;;;;;0.30;0.20;;;;;;;10.16;100.00;98075.13;4986658;28;20473;-50
2021/01/29 05:37:53;;;;;;;0.30;0.20;;;;;;;10.26;100.00;98062.97;4974882;28;20512;-50
2021/01/29 05:40:22;;;;;;;0.30;0.20;;;;;;;10.18;100.00;98057.28;4988998;28;20445;-50
2021/01/29 05:43:03;;;;;;;0.30;0.20;;;;;;;10.26;100.00;98060.31;4985532;28;20453;-50
2021/01/29 05:45:45;;;;;;;0.30;0.20;;;;;;;10.50;100.00;98061.41;4981964;28;20497;-50
2021/01/29 05:48:20;;;;;;;0.30;0.20;;;;;;;10.25;100.00;98055.97;4982080;28;20454;-50
2021/01/29 05:51:05;;;;;;;0.30;0.20;;;;;;;10.43;100.00;98081.38;4987285;28;20446;-50
2021/01/29 05:54:13;;;;;;;0.70;0.70;;;;;;;10.19;100.00;98069.59;4988826;28;20450;-50
2021/01/29 05:57:10;;;;;;;0.30;0.20;;;;;;;10.21;100.00;98065.03;4979845;28;20473;-51
2021/01/29 05:59:55;;;;;;;0.30;0.20;;;;;;;10.21;100.00;98080.97;4981985;28;20934;-50
2021/01/29 06:02:49;;;;;;;0.30;0.20;;;;;;;10.15;100.00;98061.00;4992479;28;20457;-50
2021/01/29 06:05:52;;;;;;;0.30;0.20;;;;;;;10.19;100.00;98075.75;4972433;28;20477;-50
2021/01/29 06:08:43;;;;;;;0.30;0.20;;;;;;;10.21;100.00;98087.16;4988566;28;20524;-51
2021/01/29 06:11:31;;;;;;;0.30;0.20;;;;;;;10.34;100.00;98097.88;4988423;28;20450;-50
2021/01/29 06:14:27;;;;;;;0.30;0.20;;;;;;;10.26;100.00;98102.81;4988512;28;20469;-50
2021/01/29 06:17:15;;;;;;;0.30;0.20;;;;;;;10.20;100.00;98095.19;4974341;28;20450;-50
2021/01/29 06:20:01;;;;;;;0.30;0.20;;;;;;;10.26;100.00;98110.75;4969210;28;20469;-49
2021/01/29 06:22:52;;;;;;;0.30;0.20;;;;;;;10.23;100.00;98108.31;4981376;28;20457;-50
2021/01/29 06:25:45;;;;;;;0.30;0.20;;;;;;;10.19;100.00;98115.59;4969681;28;20471;-51
2021/01/29 06:28:34;;;;;;;0.30;0.20;;;;;;;10.08;100.00;98121.56;4976823;28;20500;-50
2021/01/29 06:31:45;;;;;;;0.30;0.20;;;;;;;10.07;100.00;98124.31;4988176;28;20447;-50
2021/01/29 06:34:27;;;;;;;0.30;0.20;;;;;;;10.11;100.00;98136.44;4987917;28;21067;-50
2021/01/29 06:37:12;;;;;;;0.30;0.20;;;;;;;9.97;100.00;98158.50;4987832;28;20544;-50
2021/01/29 06:39:51;;;;;;;0.30;0.20;;;;;;;9.88;100.00;98172.34;4984956;28;20507;-51
2021/01/29 06:42:55;;;;;;;0.30;0.20;;;;;;;9.94;100.00;98174.63;4981071;28;20846;-49
2021/01/29 06:45:58;;;;;;;0.30;0.20;;;;;;;9.80;100.00;98183.41;4980892;28;20531;-49
2021/01/29 06:48:42;;;;;;;0.30;0.20;;;;;;;9.76;100.00;98181.88;4980776;28;20446;-49
2021/01/29 06:51:24;;;;;;;0.30;0.20;;;;;;;9.61;100.00;98185.44;4982808;28;20450;-49
2021/01/29 06:54:15;;;;;;;0.30;0.20;;;;;;;9.68;100.00;98202.69;4962253;28;20477;-49
2021/01/29 06:56:41;;;;;;;0.30;0.20;;;;;;;9.65;100.00;98210.84;4978770;28;20849;-49
2021/01/29 06:59:25;;;;;;;0.30;0.20;;;;;;;9.57;100.00;98215.72;4982969;28;20832;-48
2021/01/29 07:02:26;;;;;;;0.30;0.20;;;;;;;9.44;100.00;98214.72;4981514;28;20459;-49
2021/01/29 07:05:09;;;;;;;0.30;0.20;;;;;;;9.48;100.00;98218.94;4980635;28;20889;-48
2021/01/29 07:07:55;;;;;;;0.30;0.20;;;;;;;9.36;100.00;98219.63;4980558;28;20494;-49
2021/01/29 07:10:31;;;;;;;0.30;0.20;;;;;;;9.46;100.00;98226.13;4983530;28;20458;-49
2021/01/29 07:13:28;;;;;;;0.30;0.20;;;;;;;9.48;100.00;98226.88;4987483;28;20450;-49
2021/01/29 07:16:17;;;;;;;0.30;0.20;;;;;;;9.37;100.00;98227.50;4987248;28;20469;-48
2021/01/29 07:19:39;;;;;;;0.30;0.20;;;;;;;9.37;100.00;98231.94;4986311;28;20528;-49
2021/01/29 07:22:20;;;;;;;0.30;0.20;;;;;;;9.52;100.00;98240.81;4952141;28;20457;-49
2021/01/29 07:25:08;;;;;;;0.30;0.20;;;;;;;9.21;100.00;98229.31;4970962;28;20480;-49
2021/01/29 07:27:52;;;;;;;0.30;0.20;;;;;;;9.32;100.00;98234.84;4981153;28;20498;-49
2021/01/29 07:30:43;;;;;;;0.30;0.20;;;;;;;9.35;100.00;98217.91;4986923;28;20519;-50
2021/01/29 07:33:35;;;;;;;0.30;0.20;;;;;;;9.40;100.00;98215.84;4985082;28;20452;-49
2021/01/29 07:36:19;;;;;;;0.30;0.20;;;;;;;9.36;100.00;98228.44;4970152;28;20457;-49
2021/01/29 07:39:04;;;;;;;0.30;0.20;;;;;;;9.32;100.00;98223.38;4980216;28;20485;-49
2021/01/29 07:41:40;;;;;;;0.30;0.20;;;;;;;9.37;100.00;98218.69;4980499;28;20450;-49
2021/01/29 07:44:27;;;;;;;0.30;0.20;;;;;;;9.52;100.00;98222.25;4981825;28;20493;-51
2021/01/29 07:47:13;;;;;;;0.30;0.20;;;;;;;9.46;100.00;98224.31;4963107;28;20548;-50
2021/01/29 07:50:00;;;;;;;0.30;0.20;;;;;;;9.49;100.00;98232.09;4986861;28;20445;-51
2021/01/29 07:52:35;;;;;;;0.30;0.20;;;;;;;9.56;100.00;98243.19;4984065;28;20529;-50
2021/01/29 07:55:22;;;;;;;0.30;0.20;;;;;;;9.54;100.00;98238.91;4986220;28;20828;-50
2021/01/29 07:58:16;;;;;;;0.30;0.20;;;;;;;9.65;100.00;98253.28;4969574;28;20543;-50
2021/01/29 08:01:03;;;;;;;0.30;0.20;;;;;;;9.70;100.00;98251.19;4984387;28;20446;-50
2021/01/29 08:03:53;;;;;;;0.30;0.20;;;;;;;9.74;100.00;98268.69;4967552;28;21027;-50
2021/01/29 08:06:49;;;;;;;0.30;0.20;;;;;;;9.74;100.00;98268.69;4979584;28;20500;-50
2021/01/29 08:09:25;;;;;;;0.30;0.20;;;;;;;9.74;100.00;98281.94;4979727;28;20940;-50
2021/01/29 08:11:57;;;;;;;0.30;0.20;;;;;;;9.88;100.00;98288.25;4984525;28;20956;-50
2021/01/29 08:14:51;;;;;;;0.30;0.20;;;;;;;9.85;100.00;98297.22;4986150;28;20478;-50
2021/01/29 08:17:50;;;;;;;0.30;0.20;;;;;;;9.91;100.00;98291.56;4986425;28;20480;-50
2021/01/29 08:20:36;;;;;;;0.30;0.20;;;;;;;10.04;100.00;98289.06;4984812;28;20450;-50
2021/01/29 08:23:17;;;;;;;0.30;0.20;;;;;;;10.08;100.00;98295.88;4968771;28;20869;-51
2021/01/29 08:26:07;;;;;;;0.30;0.20;;;;;;;10.07;100.00;98291.53;4979902;28;20473;-51
2021/01/29 08:29:01;;;;;;;0.30;0.20;;;;;;;10.07;100.00;98295.03;4980813;28;20520;-51
2021/01/29 08:31:33;;;;;;;0.30;0.20;;;;;;;10.11;100.00;98298.34;4973249;28;20939;-50
2021/01/29 08:34:44;;;;;;;0.30;0.20;;;;;;;10.19;100.00;98297.91;4979539;28;20480;-51
2021/01/29 08:37:32;;;;;;;0.30;0.20;;;;;;;10.19;100.00;98317.34;4969706;28;20454;-51
2021/01/29 08:40:18;;;;;;;0.30;0.20;;;;;;;10.18;100.00;98315.66;4990180;28;20824;-51
2021/01/29 08:42:47;;;;;;;0.30;0.20;;;;;;;10.27;100.00;98320.44;4975359;28;20670;-51
2021/01/29 08:45:31;;;;;;;0.30;0.20;;;;;;;10.35;100.00;98325.31;4980744;28;20489;-51
2021/01/29 08:48:12;;;;;;;0.30;0.20;;;;;;;10.23;100.00;98318.91;4976928;28;20944;-51
2021/01/29 08:51:08;;;;;;;0.30;0.20;;;;;;;10.24;100.00;98325.06;4971393;28;20856;-51
2021/01/29 08:53:51;;;;;;;0.30;0.20;;;;;;;10.30;100.00;98322.06;4982974;28;20449;-51
2021/01/29 08:56:39;;;;;;;0.30;0.20;;;;;;;10.32;100.00;98328.16;4982896;28;20936;-51
2021/01/29 08:59:08;;;;;;;0.30;0.20;;;;;;;10.35;100.00;98320.84;4985948;28;20450;-51
2021/01/29 09:01:46;;;;;;;0.30;0.20;;;;;;;10.44;100.00;98331.88;4991523;28;20464;-51
2021/01/29 09:04:19;;;;;;;0.30;0.20;;;;;;;10.38;100.00;98343.72;4983461;28;20505;-51
2021/01/29 09:06:47;;;;;;;0.30;0.20;;;;;;;10.39;100.00;98337.44;4970798;28;20485;-51
2021/01/29 09:09:22;;;;;;;0.30;0.20;;;;;;;10.40;98.25;98347.13;4983078;28;20450;-51
2021/01/29 09:11:53;;;;;;;0.30;0.20;;;;;;;10.43;96.76;98346.13;4987678;28;20884;-51
2021/01/29 09:14:40;;;;;;;0.30;0.20;;;;;;;10.44;95.56;98353.97;4989378;28;20478;-51
2021/01/29 09:17:19;;;;;;;0.30;0.20;;;;;;;10.49;96.19;98361.66;4988486;28;20445;-51
2021/01/29 09:19:56;;;;;;;0.30;0.20;;;;;;;10.50;95.97;98358.06;4994976;28;20457;-51
2021/01/29 09:22:30;;;;;;;0.30;0.20;;;;;;;10.55;95.30;98374.56;4982756;28;20449;-51
2021/01/29 09:25:17;;;;;;;0.30;0.20;;;;;;;10.54;94.68;98371.06;4986513;28;20470;-53
2021/01/29 09:27:53;;;;;;;0.30;0.20;;;;;;;10.57;93.03;98359.44;4989119;28;20485;-51
2021/01/29 09:30:47;;;;;;;0.30;0.20;;;;;;;10.62;91.85;98370.63;4989330;28;20449;-53
2021/01/29 09:33:23;;;;;;;0.30;0.17;;;;;;;10.59;91.77;98374.31;4978482;28;20450;-51
2021/01/29 09:36:01;;;;;;;0.30;0.20;;;;;;;10.65;90.47;98370.44;4982237;28;20886;-53
2021/01/29 09:38:32;;;;;;;0.30;0.20;;;;;;;10.72;93.00;98379.75;4982258;28;20871;-53
2021/01/29 09:41:02;;;;;;;0.30;0.20;;;;;;;10.75;93.08;98378.72;4994611;28;20458;-51
2021/01/29 09:43:55;;;;;;;0.30;0.20;;;;;;;10.66;93.64;98380.09;4982272;28;20465;-51
2021/01/29 09:46:30;;;;;;;0.30;0.20;;;;;;;10.60;94.72;98386.66;4983256;28;20490;-51
2021/01/29 09:49:18;;;;;;;0.30;0.20;;;;;;;10.74;94.31;98384.97;4982717;28;20438;-51
2021/01/29 09:52:02;;;;;;;0.30;0.20;;;;;;;10.68;95.34;98399.47;4982279;28;20458;-51
2021/01/29 09:54:43;;;;;;;0.30;0.20;;;;;;;10.58;95.81;98390.34;4983821;28;20476;-53
2021/01/29 09:57:22;;;;;;;0.30;0.20;;;;;;;10.62;95.64;98390.06;4973016;28;20453;-51
2021/01/29 10:00:19;;;;;;;0.30;0.20;;;;;;;10.59;97.38;98403.53;4982121;28;20511;-51
2021/01/29 10:03:10;;;;;;;0.30;0.20;;;;;;;10.69;96.36;98403.88;4984744;28;20469;-51
2021/01/29 10:05:56;;;;;;;0.30;0.20;;;;;;;10.76;96.74;98407.84;4985764;28;20469;-51
2021/01/29 10:08:36;;;;;;;0.30;0.20;;;;;;;10.74;97.19;98408.91;4988493;28;20875;-51
2021/01/29 10:11:17;;;;;;;0.30;0.20;;;;;;;10.73;97.63;98410.69;4977645;28;20454;-51
2021/01/29 10:13:52;;;;;;;0.30;0.20;;;;;;;10.88;97.44;98409.78;4984054;28;20481;-51
2021/01/29 10:16:27;;;;;;;0.30;0.20;;;;;;;10.81;96.46;98416.41;4988470;28;20446;-51
2021/01/29 10:19:18;;;;;;;0.30;0.20;;;;;;;10.84;96.13;98418.91;4988352;28;20446;-51
2021/01/29 10:22:01;;;;;;;0.30;0.20;;;;;;;10.98;96.43;98426.03;4974771;28;20448;-51
2021/01/29 10:24:54;;;;;;;0.30;0.20;;;;;;;11.02;95.35;98426.69;4981547;28;20469;-51
2021/01/29 10:27:32;;;;;;;0.30;0.20;;;;;;;10.95;95.96;98424.41;4969910;28;20905;-51
2021/01/29 10:30:15;;;;;;;0.30;0.20;;;;;;;11.06;95.39;98430.88;4985093;28;20503;-51
2021/01/29 10:32:52;;;;;;;0.30;0.20;;;;;;;11.17;94.28;98429.28;4964198;28;20458;-51
2021/01/29 10:35:28;;;;;;;0.30;0.20;;;;;;;11.18;92.38;98428.34;4981478;28;20481;-51
2021/01/29 10:38:08;;;;;;;0.30;0.20;;;;;;;11.19;91.58;98429.19;4985713;28;20931;-51
2021/01/29 10:40:42;;;;;;;0.30;0.20;;;;;;;11.26;92.19;98428.72;4987775;28;20454;-51
2021/01/29 10:43:19;;;;;;;0.30;0.20;;;;;;;11.27;91.32;98424.28;4986691;28;20457;-51
2021/01/29 10:45:49;;;;;;;0.30;0.20;;;;;;;11.35;91.24;98437.06;4980815;28;20489;-51
2021/01/29 10:48:27;;;;;;;0.30;0.20;;;;;;;11.31;92.22;98441.75;4981257;28;20454;-51
2021/01/29 10:51:01;;;;;;;0.30;0.20;;;;;;;11.39;92.01;98442.13;4985614;28;20524;-51
2021/01/29 10:53:28;;;;;;;0.30;0.20;;;;;;;11.64;91.71;98438.78;4988006;28;20447;-51
2021/01/29 10:55:59;;;;;;;0.30;0.20;;;;;;;11.65;91.90;98436.97;4974931;28;20451;-51
2021/01/29 10:58:31;;;;;;;0.30;0.20;;;;;;;11.63;91.83;98429.09;4986988;28;20483;-51
2021/01/29 11:01:05;;;;;;;0.30;0.20;;;;;;;11.68;92.90;98439.47;4985380;28;20951;-50
2021/01/29 11:03:53;;;;;;;0.30;0.20;;;;;;;11.81;92.06;98454.59;4953001;28;20544;-51
2021/01/29 11:06:24;;;;;;;0.30;0.20;;;;;;;11.78;92.24;98444.09;4980847;28;21078;-51
2021/01/29 11:08:54;;;;;;;0.30;0.20;;;;;;;11.86;91.61;98448.97;4971722;28;20447;-51
2021/01/29 11:11:37;;;;;;;0.30;0.20;;;;;;;11.94;92.31;98452.03;4986286;28;20490;-50
2021/01/29 11:14:18;;;;;;;0.30;0.20;;;;;;;12.12;92.40;98445.50;4988237;28;20507;-52
2021/01/29 11:17:06;;;;;;;0.30;0.20;;;;;;;11.97;92.88;98446.50;4983878;28;20871;-51
2021/01/29 11:19:37;;;;;;;0.30;0.20;;;;;;;11.97;91.99;98464.28;4980502;28;20445;-51
2021/01/29 11:22:12;;;;;;;0.30;0.20;;;;;;;12.16;93.04;98457.66;4980604;28;20450;-51
2021/01/29 11:24:44;;;;;;;0.30;0.20;;;;;;;12.27;92.74;98450.78;4969628;28;20903;-51
2021/01/29 11:27:13;;;;;;;0.30;0.20;;;;;;;12.23;92.57;98457.28;4984038;28;20544;-50
2021/01/29 11:29:58;;;;;;;0.33;0.20;;;;;;;12.03;92.67;98463.88;4982618;28;20450;-51
2021/01/29 11:32:49;;;;;;;0.30;0.20;;;;;;;12.01;92.70;98474.63;4980117;28;20450;-51
2021/01/29 11:35:27;;;;;;;0.30;0.20;;;;;;;12.02;93.56;98478.13;4972938;28;20478;-51
2021/01/29 11:37:58;;;;;;;0.30;0.20;;;;;;;12.07;91.65;98473.41;4983817;28;20446;-51
2021/01/29 11:40:27;;;;;;;0.30;0.20;;;;;;;12.18;90.88;98470.03;4986361;28;20464;-51
2021/01/29 11:43:31;;;;;;;0.30;0.20;;;;;;;12.07;90.83;98482.25;4991122;28;20869;-51
2021/01/29 11:46:40;;;;;;;0.30;0.20;;;;;;;11.90;89.99;98471.78;4972712;28;20874;-51
2021/01/29 11:49:15;;;;;;;0.30;0.20;;;;;;;12.05;90.25;98478.78;4969046;28;20461;-50
2021/01/29 11:51:45;;;;;;;0.30;0.20;;;;;;;11.98;89.00;98474.81;4980483;28;20457;-51
2021/01/29 11:54:33;;;;;;;0.30;0.20;;;;;;;12.14;88.67;98470.22;4983846;28;20541;-51
2021/01/29 11:57:20;;;;;;;0.30;0.20;;;;;;;12.05;88.52;98465.47;4967800;28;20445;-51
2021/01/29 12:00:11;;;;;;;0.30;0.20;;;;;;;12.11;88.10;98472.25;4979700;28;20928;-51
2021/01/29 12:02:48;;;;;;;0.30;0.20;;;;;;;12.03;87.36;98475.38;4989998;28;20450;-51
2021/01/29 12:05:34;;;;;;;0.30;0.20;;;;;;;12.09;88.44;98466.16;4985427;28;20548;-51
2021/01/29 12:08:40;;;;;;;0.30;0.20;;;;;;;12.09;88.35;98466.16;4986225;28;20518;-51
2021/01/29 12:11:24;;;;;;;0.30;0.20;;;;;;;12.19;89.46;98459.25;4986256;28;20549;-51
2021/01/29 12:14:03;;;;;;;0.30;0.20;;;;;;;12.27;89.15;98464.97;4984861;28;20473;-51
2021/01/29 12:16:32;;;;;;;0.30;0.20;;;;;;;12.35;88.08;98453.81;4985913;28;20837;-51
2021/01/29 12:19:01;;;;;;;0.30;0.20;;;;;;;12.28;88.21;98452.50;4986335;28;20484;-51
2021/01/29 12:21:44;;;;;;;0.30;0.20;;;;;;;12.14;87.62;98456.06;4980885;28;20544;-51
2021/01/29 12:24:32;;;;;;;0.30;0.20;;;;;;;12.12;87.96;98458.81;4979545;28;20512;-51
2021/01/29 12:27:08;;;;;;;0.30;0.20;;;;;;;12.11;88.10;98459.78;4985520;28;20500;-51
2021/01/29 12:29:38;;;;;;;0.30;0.20;;;;;;;12.18;88.90;98452.22;4969057;28;20449;-51
2021/01/29 12:32:24;;;;;;;0.30;0.20;;;;;;;12.28;88.28;98449.84;4979569;28;20447;-51